Time;durP1;ratioP1;P1;durP2;ratioP2;P2;SDS_P1;SDS_P2;PMS_P1;PMS_P2;Temp;Humidity;BMP_temperature;BMP_pressure;BME280_temperature;BME280_humidity;BME280_pressure;Samples;Min_cycle;Max_cycle;Signal;HPM_P1;HPM_P2
2023/02/23 00:02:04;;;;;;;52.40;37.50;;;11.40;99.90;;;;;;4984247;28;20442;-74
2023/02/23 00:04:30;;;;;;;47.40;35.37;;;11.40;99.90;;;;;;4987133;28;20907;-73
2023/02/23 00:06:55;;;;;;;46.03;34.17;;;11.40;99.90;;;;;;4985448;28;20431;-73
2023/02/23 00:09:24;;;;;;;56.63;39.30;;;11.40;99.90;;;;;;4983666;28;20215;-73
2023/02/23 00:11:56;;;;;;;50.30;35.80;;;11.40;99.90;;;;;;4982080;28;20177;-74
2023/02/23 00:14:27;;;;;;;48.50;37.70;;;11.40;99.90;;;;;;4982964;28;20801;-73
2023/02/23 00:16:56;;;;;;;50.57;37.33;;;11.40;99.90;;;;;;4978775;28;20425;-75
2023/02/23 00:19:23;;;;;;;43.53;35.37;;;11.50;99.90;;;;;;4995813;28;20448;-74
2023/02/23 00:21:49;;;;;;;48.60;37.63;;;11.40;99.90;;;;;;4994672;28;20432;-75
2023/02/23 00:24:18;;;;;;;51.23;38.57;;;11.50;99.90;;;;;;4992608;28;20449;-74
2023/02/23 00:26:46;;;;;;;53.60;39.40;;;11.40;99.90;;;;;;4990564;28;20433;-73
2023/02/23 00:29:17;;;;;;;52.57;38.23;;;11.50;99.90;;;;;;4988547;28;20998;-74
2023/02/23 00:31:47;;;;;;;54.63;40.70;;;11.50;99.90;;;;;;4986718;28;20808;-73
2023/02/23 00:34:15;;;;;;;50.73;38.83;;;11.40;99.90;;;;;;4985778;28;20477;-74
2023/02/23 00:36:41;;;;;;;49.37;38.70;;;11.40;99.90;;;;;;4983283;28;20516;-73
2023/02/23 00:39:25;;;;;;;53.40;40.40;;;11.40;99.90;;;;;;4981622;28;20523;-73
2023/02/23 00:41:52;;;;;;;51.83;38.53;;;11.40;99.90;;;;;;4979561;28;20448;-73
2023/02/23 00:44:18;;;;;;;57.73;39.40;;;11.40;99.90;;;;;;4977864;28;20962;-73
2023/02/23 00:46:44;;;;;;;54.70;40.77;;;11.40;99.90;;;;;;4975609;28;20488;-73
2023/02/23 00:49:12;;;;;;;55.60;40.33;;;11.40;99.90;;;;;;4990245;28;20483;-73
2023/02/23 00:51:38;;;;;;;59.23;40.67;;;11.40;99.90;;;;;;4990884;28;20460;-73
2023/02/23 00:54:04;;;;;;;58.17;40.90;;;11.30;99.90;;;;;;4990310;28;20428;-73
2023/02/23 00:56:30;;;;;;;62.77;42.50;;;11.40;99.90;;;;;;4988212;28;20772;-73
2023/02/23 00:58:56;;;;;;;59.33;42.37;;;11.40;99.90;;;;;;4986641;28;20447;-73
2023/02/23 01:01:23;;;;;;;59.20;40.60;;;11.40;99.90;;;;;;4984804;28;20637;-73
2023/02/23 01:03:48;;;;;;;66.97;44.00;;;11.40;99.90;;;;;;4983049;28;20452;-73
2023/02/23 01:06:16;;;;;;;78.33;45.57;;;11.30;99.90;;;;;;4981157;28;20441;-73
2023/02/23 01:08:44;;;;;;;69.83;45.93;;;11.30;99.90;;;;;;4979353;28;20564;-73
2023/02/23 01:11:22;;;;;;;56.80;41.53;;;11.30;99.90;;;;;;4977624;28;20436;-72
2023/02/23 01:13:50;;;;;;;67.80;42.47;;;11.30;99.90;;;;;;4986194;28;20452;-72
2023/02/23 01:16:17;;;;;;;62.73;45.90;;;11.30;99.90;;;;;;4981537;28;20445;-73
2023/02/23 01:18:44;;;;;;;63.93;43.97;;;11.30;99.90;;;;;;4981652;28;20444;-73
2023/02/23 01:21:27;;;;;;;58.93;42.73;;;11.30;99.90;;;;;;4981176;28;20440;-73
2023/02/23 01:23:53;;;;;;;69.27;46.33;;;11.30;99.90;;;;;;4987728;28;20494;-74
2023/02/23 01:26:32;;;;;;;66.37;43.70;;;11.30;99.90;;;;;;4985774;28;20428;-73
2023/02/23 01:29:00;;;;;;;66.40;45.40;;;11.20;99.90;;;;;;4986216;28;20955;-73
2023/02/23 01:31:27;;;;;;;66.80;45.60;;;11.20;99.90;;;;;;4987843;28;20571;-73
2023/02/23 01:33:58;;;;;;;73.87;47.30;;;11.30;99.90;;;;;;4980096;28;20433;-73
2023/02/23 01:36:24;;;;;;;66.73;46.80;;;11.30;99.90;;;;;;4978728;28;20484;-75
2023/02/23 01:38:53;;;;;;;64.73;42.27;;;11.30;99.90;;;;;;4976907;28;20437;-74
2023/02/23 01:41:18;;;;;;;82.10;49.10;;;11.30;99.90;;;;;;4976005;28;20435;-74
2023/02/23 01:43:59;;;;;;;64.23;45.53;;;11.30;99.90;;;;;;4977023;28;20736;-74
2023/02/23 01:46:25;;;;;;;73.43;47.07;;;11.20;99.90;;;;;;4989092;28;20268;-74
2023/02/23 01:48:55;;;;;;;74.23;49.00;;;11.20;99.90;;;;;;4988824;28;21061;-74
2023/02/23 01:51:23;;;;;;;72.47;51.17;;;11.20;99.90;;;;;;4983338;28;20931;-74
2023/02/23 01:54:14;;;;;;;73.67;50.10;;;11.20;99.90;;;;;;4984118;28;20623;-74
2023/02/23 01:56:43;;;;;;;71.47;45.77;;;11.20;99.90;;;;;;4985954;28;20432;-74
2023/02/23 01:59:11;;;;;;;71.57;47.50;;;11.20;99.90;;;;;;4987959;28;20514;-72
2023/02/23 02:01:39;;;;;;;68.53;46.97;;;11.20;99.90;;;;;;4989649;28;20432;-72
2023/02/23 02:04:05;;;;;;;77.37;48.03;;;11.20;99.90;;;;;;4991345;28;21011;-72
2023/02/23 02:06:33;;;;;;;80.80;51.33;;;11.20;99.90;;;;;;4986855;28;20573;-73
2023/02/23 02:09:08;;;;;;;85.23;50.57;;;11.20;99.90;;;;;;4975569;28;20894;-73
2023/02/23 02:11:38;;;;;;;73.30;48.67;;;11.20;99.90;;;;;;4989091;28;20497;-73
2023/02/23 02:14:29;;;;;;;75.83;46.73;;;11.20;99.90;;;;;;4990248;28;20440;-73
2023/02/23 02:17:01;;;;;;;71.67;46.80;;;11.20;99.90;;;;;;4987875;28;20479;-73
2023/02/23 02:20:12;;;;;;;78.70;50.00;;;11.20;99.90;;;;;;4986403;28;20519;-73
2023/02/23 02:22:49;;;;;;;71.23;46.60;;;11.20;99.90;;;;;;4984957;28;20440;-73
2023/02/23 02:25:39;;;;;;;82.50;50.97;;;11.20;99.90;;;;;;4986070;28;20447;-74
2023/02/23 02:28:17;;;;;;;83.80;49.33;;;11.20;99.90;;;;;;4982386;28;20767;-74
2023/02/23 02:31:01;;;;;;;78.30;49.10;;;11.20;99.90;;;;;;4977934;28;20559;-74
2023/02/23 02:34:14;;;;;;;82.23;50.83;;;11.20;99.90;;;;;;4990392;28;20428;-74
2023/02/23 02:37:04;;;;;;;87.27;50.33;;;11.20;99.90;;;;;;4992798;28;20424;-74
2023/02/23 02:40:14;;;;;;;85.90;50.43;;;11.20;99.90;;;;;;4991344;28;20431;-74
2023/02/23 02:43:07;;;;;;;76.67;48.87;;;11.20;99.90;;;;;;4980656;28;20440;-75
2023/02/23 02:45:54;;;;;;;77.83;49.40;;;11.20;99.90;;;;;;4986559;28;20477;-75
2023/02/23 02:48:32;;;;;;;84.20;51.37;;;11.20;99.90;;;;;;4985094;28;20918;-75
2023/02/23 02:51:11;;;;;;;88.00;48.90;;;11.20;99.90;;;;;;4982249;28;20420;-75
2023/02/23 02:53:43;;;;;;;89.77;50.67;;;11.20;99.90;;;;;;4987032;28;20445;-75
2023/02/23 02:56:10;;;;;;;82.27;50.50;;;11.20;99.90;;;;;;4981479;28;20445;-75
2023/02/23 02:58:37;;;;;;;87.47;51.57;;;11.20;99.90;;;;;;4977032;28;20795;-77
2023/02/23 05:31:09;;;;;;;79.60;49.03;;;11.20;99.90;;;;;;5721575;23;20529;-73
2023/02/23 05:33:41;;;;;;;87.43;50.97;;;11.20;99.90;;;;;;5063243;28;20498;-72
2023/02/23 05:36:09;;;;;;;83.37;49.27;;;11.20;99.90;;;;;;5060896;28;20457;-73
2023/02/23 05:38:35;;;;;;;84.17;51.10;;;11.20;99.90;;;;;;5058711;28;20430;-76
2023/02/23 05:41:10;;;;;;;85.13;48.67;;;11.20;99.90;;;;;;5057142;28;20544;-70
2023/02/23 05:43:36;;;;;;;81.60;50.77;;;11.20;99.90;;;;;;5064661;28;21661;-71
2023/02/23 05:46:06;;;;;;;79.83;49.87;;;11.20;99.90;;;;;;5057483;28;20435;-71
2023/02/23 05:48:32;;;;;;;79.57;47.57;;;11.20;99.90;;;;;;5055671;28;20219;-72
2023/02/23 05:51:01;;;;;;;82.50;49.77;;;11.20;99.90;;;;;;5064824;28;20478;-71
2023/02/23 05:53:27;;;;;;;87.83;50.60;;;11.20;99.90;;;;;;5067618;28;20431;-71
2023/02/23 05:55:52;;;;;;;75.70;47.17;;;11.20;99.90;;;;;;5066272;28;20437;-71
2023/02/23 05:58:18;;;;;;;92.17;53.20;;;11.20;99.90;;;;;;5064444;28;20629;-71
2023/02/23 06:00:43;;;;;;;87.83;51.70;;;11.10;99.90;;;;;;5062575;28;20622;-71
2023/02/23 06:03:09;;;;;;;89.83;52.47;;;11.20;99.90;;;;;;5065835;28;20612;-71
2023/02/23 06:05:35;;;;;;;109.07;54.20;;;11.10;99.90;;;;;;5058515;28;20187;-71
2023/02/23 06:08:00;;;;;;;99.40;53.07;;;11.10;99.90;;;;;;5057229;28;20194;-71
2023/02/23 06:10:26;;;;;;;88.57;50.37;;;11.10;99.90;;;;;;5055353;28;20286;-71
2023/02/23 06:12:51;;;;;;;90.57;49.83;;;11.10;99.90;;;;;;5058964;28;20567;-71
2023/02/23 06:15:17;;;;;;;91.70;49.73;;;11.10;99.90;;;;;;5071781;28;20232;-71
2023/02/23 06:17:43;;;;;;;92.83;51.50;;;11.10;99.90;;;;;;5070043;28;20210;-72
2023/02/23 06:20:09;;;;;;;84.17;49.63;;;11.10;99.90;;;;;;5068256;28;20309;-71
2023/02/23 06:22:34;;;;;;;79.73;48.43;;;11.10;99.90;;;;;;5065853;28;20248;-71
2023/02/23 06:25:03;;;;;;;81.27;48.00;;;11.10;99.90;;;;;;5059690;28;20919;-72
2023/02/23 06:27:29;;;;;;;90.50;50.47;;;11.20;99.90;;;;;;5061907;28;20195;-71
2023/02/23 06:29:54;;;;;;;80.60;46.93;;;11.20;99.90;;;;;;5062362;28;20494;-71
2023/02/23 06:32:20;;;;;;;83.37;48.23;;;11.20;99.90;;;;;;5060296;28;20277;-72
2023/02/23 06:34:46;;;;;;;85.03;50.20;;;11.20;99.90;;;;;;5058969;28;20194;-74
2023/02/23 06:37:11;;;;;;;82.50;47.37;;;11.20;99.90;;;;;;5067593;28;20644;-72
2023/02/23 06:39:37;;;;;;;80.60;48.73;;;11.10;99.90;;;;;;5069364;28;20189;-71
2023/02/23 06:42:02;;;;;;;90.40;50.70;;;11.10;99.90;;;;;;5056627;28;20221;-71
2023/02/23 06:44:28;;;;;;;95.43;50.50;;;11.10;99.90;;;;;;5053147;28;20687;-71
2023/02/23 06:46:53;;;;;;;82.87;48.50;;;11.10;99.90;;;;;;5055729;28;20266;-72
2023/02/23 06:49:19;;;;;;;88.83;48.13;;;11.10;99.90;;;;;;5056933;28;20538;-74
2023/02/23 06:51:44;;;;;;;90.10;48.83;;;11.10;99.90;;;;;;5068327;28;20237;-72
2023/02/23 06:54:10;;;;;;;84.27;48.20;;;11.10;99.90;;;;;;5070689;28;20231;-72
2023/02/23 06:56:35;;;;;;;87.80;46.83;;;11.10;99.90;;;;;;5065734;28;20179;-73
2023/02/23 06:59:01;;;;;;;91.13;46.77;;;11.00;99.90;;;;;;5065804;28;20534;-72
2023/02/23 07:01:26;;;;;;;86.60;47.70;;;11.00;99.90;;;;;;5068432;28;20170;-76
2023/02/23 07:03:52;;;;;;;96.83;49.60;;;11.00;99.90;;;;;;5067020;28;20626;-78
2023/02/23 07:06:18;;;;;;;96.10;49.53;;;11.00;99.90;;;;;;5068838;28;20170;-75
2023/02/23 07:08:43;;;;;;;97.33;49.03;;;11.00;99.90;;;;;;5065095;28;20187;-74
2023/02/23 07:11:12;;;;;;;96.57;48.00;;;11.00;99.90;;;;;;5067476;28;20186;-73
2023/02/23 07:13:38;;;;;;;87.40;48.93;;;11.00;99.90;;;;;;5059496;28;20546;-73
2023/02/23 07:16:04;;;;;;;92.57;47.70;;;11.00;99.90;;;;;;5063707;28;20437;-73
2023/02/23 07:18:30;;;;;;;90.10;48.07;;;11.00;99.90;;;;;;5065378;28;20498;-73
2023/02/23 07:20:56;;;;;;;89.43;50.13;;;11.00;99.90;;;;;;5063688;28;20923;-73
2023/02/23 07:23:21;;;;;;;101.33;52.17;;;11.00;99.90;;;;;;5059917;28;20486;-73
2023/02/23 07:25:49;;;;;;;89.17;49.10;;;11.00;99.90;;;;;;5058518;28;20190;-75
2023/02/23 07:28:15;;;;;;;110.07;54.07;;;11.00;99.90;;;;;;5064557;28;20189;-74
2023/02/23 07:30:41;;;;;;;89.57;48.80;;;11.00;99.90;;;;;;5062744;28;20492;-74
2023/02/23 07:33:06;;;;;;;93.00;48.77;;;11.00;99.90;;;;;;5054066;28;20247;-71
2023/02/23 07:35:32;;;;;;;99.10;51.57;;;11.00;99.90;;;;;;5052273;28;20186;-75
2023/02/23 07:37:57;;;;;;;97.53;52.93;;;11.00;99.90;;;;;;5052891;28;20237;-75
2023/02/23 07:40:24;;;;;;;98.07;50.60;;;11.00;99.90;;;;;;5054864;28;20183;-75
2023/02/23 07:42:50;;;;;;;94.33;48.50;;;11.00;99.90;;;;;;5056815;28;20195;-75
2023/02/23 07:45:16;;;;;;;100.33;52.03;;;11.00;99.90;;;;;;5059036;28;20440;-73
2023/02/23 07:47:41;;;;;;;90.27;50.23;;;11.00;99.90;;;;;;5060644;28;20214;-74
2023/02/23 07:50:08;;;;;;;101.87;51.37;;;11.00;99.90;;;;;;5062356;28;20585;-74
2023/02/23 07:52:36;;;;;;;93.13;49.60;;;11.00;99.90;;;;;;5064014;28;20526;-72
2023/02/23 07:55:01;;;;;;;94.87;50.90;;;11.00;99.90;;;;;;5066263;28;20444;-74
2023/02/23 07:57:27;;;;;;;97.43;50.43;;;11.10;99.90;;;;;;5067811;28;20798;-74
2023/02/23 07:59:52;;;;;;;103.80;51.67;;;11.10;99.90;;;;;;5069645;28;20182;-74
2023/02/23 08:02:18;;;;;;;114.37;54.90;;;11.10;99.90;;;;;;5074840;28;20210;-72
2023/02/23 08:04:43;;;;;;;93.80;49.57;;;11.10;99.90;;;;;;5075165;28;20186;-72
2023/02/23 08:07:09;;;;;;;88.63;51.07;;;11.10;99.90;;;;;;5073080;28;20182;-72
2023/02/23 08:09:35;;;;;;;88.70;50.20;;;11.10;99.90;;;;;;5071166;28;20222;-74
2023/02/23 08:12:02;;;;;;;99.33;50.03;;;11.10;99.90;;;;;;5069508;28;20891;-74
2023/02/23 08:14:28;;;;;;;88.43;48.20;;;11.10;99.90;;;;;;5067799;28;20433;-72
2023/02/23 08:16:53;;;;;;;101.13;53.00;;;11.10;99.90;;;;;;5064040;28;20860;-74
2023/02/23 08:19:22;;;;;;;101.77;51.33;;;11.00;99.90;;;;;;5067305;28;20246;-71
2023/02/23 08:21:49;;;;;;;102.37;52.17;;;11.10;99.90;;;;;;5069071;28;20276;-73
2023/02/23 08:24:16;;;;;;;100.87;51.77;;;11.10;99.90;;;;;;5070698;28;20432;-71
2023/02/23 08:26:41;;;;;;;98.60;54.93;;;11.10;99.90;;;;;;5072647;28;20463;-72
2023/02/23 08:29:07;;;;;;;97.40;53.60;;;11.10;99.90;;;;;;5074351;28;20480;-72
2023/02/23 08:31:33;;;;;;;106.90;55.10;;;11.10;99.90;;;;;;5074597;28;20241;-72
2023/02/23 08:34:00;;;;;;;103.70;56.00;;;11.10;99.90;;;;;;5067467;28;20448;-72
2023/02/23 08:36:26;;;;;;;101.47;56.30;;;11.10;99.90;;;;;;5066854;28;20437;-72
2023/02/23 08:38:53;;;;;;;111.77;55.60;;;11.10;99.90;;;;;;5068243;28;20457;-72
2023/02/23 08:41:19;;;;;;;113.03;55.90;;;11.10;99.90;;;;;;5066797;28;20789;-73
2023/02/23 08:43:45;;;;;;;93.30;50.40;;;11.10;99.90;;;;;;5065175;28;20807;-73
2023/02/23 08:46:11;;;;;;;111.87;54.33;;;11.20;99.90;;;;;;5063112;28;20433;-73
2023/02/23 08:48:39;;;;;;;106.00;54.80;;;11.20;99.90;;;;;;5061391;28;20360;-73
2023/02/23 08:51:05;;;;;;;97.00;50.07;;;11.10;99.90;;;;;;5069190;28;20849;-73
2023/02/23 08:53:31;;;;;;;92.53;50.53;;;11.10;99.90;;;;;;5070668;28;20440;-72
2023/02/23 08:56:02;;;;;;;88.97;50.37;;;11.10;99.90;;;;;;5055566;28;20788;-72
2023/02/23 08:58:29;;;;;;;83.00;50.80;;;11.10;99.90;;;;;;5054577;28;20238;-71
2023/02/23 09:00:55;;;;;;;89.27;51.80;;;11.10;99.90;;;;;;5056189;28;20429;-72
2023/02/23 09:03:22;;;;;;;75.40;44.57;;;11.10;99.90;;;;;;5057611;28;20512;-71
2023/02/23 09:05:48;;;;;;;74.13;41.70;;;11.10;99.90;;;;;;5059654;28;20425;-72
2023/02/23 09:08:15;;;;;;;66.20;42.83;;;11.10;99.90;;;;;;5061217;28;20489;-72
2023/02/23 09:10:42;;;;;;;69.43;41.53;;;11.10;99.90;;;;;;5062888;28;20451;-72
2023/02/23 09:13:12;;;;;;;63.70;40.70;;;11.10;99.90;;;;;;5064189;28;20432;-73
2023/02/23 09:15:41;;;;;;;67.17;38.90;;;11.10;99.90;;;;;;5066686;28;20448;-73
2023/02/23 09:18:09;;;;;;;59.20;39.10;;;11.10;99.90;;;;;;5069267;28;21014;-72
2023/02/23 09:20:35;;;;;;;60.20;39.60;;;11.10;99.90;;;;;;5070092;28;20916;-72
2023/02/23 09:23:00;;;;;;;54.60;37.03;;;11.10;99.90;;;;;;5071596;28;20524;-72
2023/02/23 09:25:28;;;;;;;60.03;39.10;;;11.10;99.90;;;;;;5073000;28;20277;-72
2023/02/23 09:27:58;;;;;;;55.17;36.10;;;11.10;99.90;;;;;;5071615;28;20186;-72
2023/02/23 09:30:25;;;;;;;52.13;35.20;;;11.10;99.90;;;;;;5061858;28;20476;-73
2023/02/23 09:32:51;;;;;;;57.50;35.50;;;11.10;99.90;;;;;;5059279;28;20441;-73
2023/02/23 09:35:19;;;;;;;58.43;36.50;;;11.10;99.90;;;;;;5060916;28;20445;-73
2023/02/23 09:37:51;;;;;;;54.23;34.53;;;11.10;99.90;;;;;;5062793;28;20954;-73
2023/02/23 09:40:20;;;;;;;53.67;35.53;;;11.10;99.90;;;;;;5063380;28;20536;-73
2023/02/23 09:43:10;;;;;;;55.83;35.03;;;11.10;99.90;;;;;;5061384;28;20927;-73
2023/02/23 09:46:05;;;;;;;58.23;37.07;;;11.20;99.90;;;;;;5059466;28;20420;-73
2023/02/23 09:48:33;;;;;;;57.27;35.87;;;11.20;99.90;;;;;;5023064;28;20477;-73
2023/02/23 09:50:59;;;;;;;52.03;37.70;;;11.20;99.90;;;;;;5055586;28;20433;-73
2023/02/23 09:53:34;;;;;;;51.10;35.53;;;11.30;99.90;;;;;;5054384;28;20421;-73
2023/02/23 09:56:01;;;;;;;54.27;36.50;;;11.30;99.90;;;;;;5056185;28;20421;-73
2023/02/23 09:58:30;;;;;;;58.97;39.80;;;11.30;99.90;;;;;;5057793;28;20422;-73
2023/02/23 10:01:26;;;;;;;56.70;36.73;;;11.30;99.90;;;;;;5061005;28;20460;-73
2023/02/23 10:04:04;;;;;;;58.00;35.63;;;11.40;99.90;;;;;;5061441;28;20467;-73
2023/02/23 10:06:30;;;;;;;50.90;35.40;;;11.40;99.90;;;;;;5063716;28;20433;-72
2023/02/23 10:09:13;;;;;;;50.50;33.93;;;11.40;99.90;;;;;;5061665;28;20460;-73
2023/02/23 10:11:38;;;;;;;50.30;31.10;;;11.40;99.90;;;;;;5059645;28;20186;-73
2023/02/23 10:14:19;;;;;;;52.67;34.97;;;11.30;99.90;;;;;;5058120;28;20437;-73
2023/02/23 10:17:04;;;;;;;53.80;30.90;;;11.30;99.90;;;;;;5070604;28;20657;-73
2023/02/23 10:19:42;;;;;;;52.70;32.30;;;11.30;99.90;;;;;;5072643;28;20836;-72
2023/02/23 10:22:11;;;;;;;53.57;30.57;;;11.30;99.90;;;;;;5071737;28;20826;-73
2023/02/23 10:24:42;;;;;;;55.57;33.27;;;11.30;99.90;;;;;;5069013;28;20429;-73
2023/02/23 10:27:13;;;;;;;51.80;31.00;;;11.30;99.90;;;;;;5068109;28;20428;-72
2023/02/23 10:29:44;;;;;;;52.67;31.67;;;11.20;99.90;;;;;;5062788;28;20496;-72
2023/02/23 10:32:19;;;;;;;46.23;31.47;;;11.20;99.90;;;;;;5063973;28;20471;-72
2023/02/23 10:34:47;;;;;;;47.47;29.30;;;11.20;99.90;;;;;;5063942;28;20834;-72
2023/02/23 10:37:16;;;;;;;54.60;33.87;;;11.20;99.90;;;;;;5065447;28;20425;-73
2023/02/23 10:39:41;;;;;;;56.97;33.67;;;11.20;99.90;;;;;;5058454;28;20430;-73
2023/02/23 10:42:14;;;;;;;52.60;30.27;;;11.20;99.90;;;;;;5057016;28;20417;-73
2023/02/23 10:44:43;;;;;;;47.70;30.80;;;11.20;99.90;;;;;;5066379;28;20673;-73
2023/02/23 10:47:14;;;;;;;50.50;29.77;;;11.20;99.90;;;;;;5065606;28;20871;-73
2023/02/23 10:49:51;;;;;;;54.43;31.23;;;11.20;99.90;;;;;;5054278;28;20468;-73
2023/02/23 10:52:31;;;;;;;55.70;32.77;;;11.20;99.90;;;;;;5056195;28;20417;-73
2023/02/23 10:54:57;;;;;;;55.13;29.63;;;11.30;99.90;;;;;;5067422;28;20432;-73
2023/02/23 10:57:29;;;;;;;56.53;32.20;;;11.30;99.90;;;;;;5065368;28;20428;-73
2023/02/23 11:00:13;;;;;;;53.17;29.97;;;11.30;99.90;;;;;;5061994;28;20236;-73
2023/02/23 11:02:40;;;;;;;54.20;31.37;;;11.30;99.90;;;;;;5061763;28;20834;-73
2023/02/23 11:05:06;;;;;;;49.87;29.57;;;11.30;99.90;;;;;;5059968;28;20489;-73
2023/02/23 11:07:33;;;;;;;56.03;31.00;;;11.30;99.90;;;;;;5057936;28;20833;-73
2023/02/23 11:10:23;;;;;;;46.77;29.13;;;11.30;99.90;;;;;;5056214;28;20480;-73
2023/02/23 11:12:49;;;;;;;43.77;27.20;;;11.30;99.90;;;;;;5054365;28;20781;-72
2023/02/23 11:15:23;;;;;;;50.33;30.77;;;11.20;99.90;;;;;;5052973;28;20449;-72
2023/02/23 11:18:00;;;;;;;41.23;26.77;;;11.20;99.90;;;;;;5067216;28;20633;-72
2023/02/23 11:20:37;;;;;;;42.30;25.93;;;11.20;99.90;;;;;;5068440;28;20913;-73
2023/02/23 11:23:26;;;;;;;42.67;25.97;;;11.20;99.90;;;;;;5066514;28;20463;-74
2023/02/23 11:25:55;;;;;;;45.23;27.90;;;11.10;99.90;;;;;;5064237;28;20429;-73
2023/02/23 11:28:40;;;;;;;42.33;24.90;;;11.10;99.90;;;;;;5062434;28;20478;-73
2023/02/23 11:31:12;;;;;;;43.60;25.10;;;11.10;99.90;;;;;;5060035;28;20507;-73
2023/02/23 11:33:38;;;;;;;39.60;24.10;;;11.10;99.90;;;;;;5058500;28;20444;-74
2023/02/23 11:36:26;;;;;;;32.67;21.77;;;11.10;99.90;;;;;;5058557;28;20422;-74
2023/02/23 11:39:03;;;;;;;41.10;23.27;;;11.10;99.90;;;;;;5058712;28;20449;-72
2023/02/23 11:41:31;;;;;;;37.87;21.83;;;11.10;99.90;;;;;;5057187;28;20462;-72
2023/02/23 11:43:59;;;;;;;42.20;23.70;;;11.10;99.90;;;;;;5071343;28;20440;-72
2023/02/23 11:46:26;;;;;;;38.47;23.80;;;11.10;99.90;;;;;;5073136;28;20821;-73
2023/02/23 11:49:04;;;;;;;42.47;24.23;;;11.00;99.90;;;;;;5071511;28;20521;-73
2023/02/23 11:51:39;;;;;;;37.67;22.97;;;11.00;99.90;;;;;;5069390;28;20788;-72
2023/02/23 11:54:09;;;;;;;41.40;22.83;;;11.00;99.90;;;;;;5067405;28;20446;-73
2023/02/23 11:56:35;;;;;;;36.33;22.80;;;11.00;99.90;;;;;;5066536;28;20425;-72
2023/02/23 11:59:06;;;;;;;35.67;22.50;;;11.00;99.90;;;;;;5068321;28;20432;-72
2023/02/23 12:01:42;;;;;;;47.23;24.00;;;11.00;99.90;;;;;;5061884;28;20417;-73
2023/02/23 12:04:22;;;;;;;43.03;24.13;;;11.00;99.90;;;;;;5059941;28;20431;-73
2023/02/23 12:06:49;;;;;;;42.40;23.17;;;11.00;99.90;;;;;;5057916;28;20424;-73
2023/02/23 12:09:31;;;;;;;40.80;23.77;;;11.00;99.90;;;;;;5056155;28;20473;-73
2023/02/23 12:12:01;;;;;;;48.97;23.70;;;11.00;99.90;;;;;;5057693;28;20486;-73
2023/02/23 12:14:37;;;;;;;41.20;22.90;;;11.00;99.90;;;;;;5052397;28;20988;-73
2023/02/23 12:17:12;;;;;;;44.73;23.63;;;11.00;99.90;;;;;;5061223;28;20424;-73
2023/02/23 12:19:55;;;;;;;39.73;22.70;;;11.00;99.90;;;;;;5068005;28;20475;-73
2023/02/23 12:22:31;;;;;;;43.80;22.13;;;10.90;99.90;;;;;;5066339;28;20475;-73
2023/02/23 12:25:39;;;;;;;43.17;24.10;;;11.00;99.90;;;;;;5064363;28;20531;-73
2023/02/23 12:28:33;;;;;;;42.57;23.47;;;10.90;99.90;;;;;;5032105;28;20452;-73
2023/02/23 12:31:19;;;;;;;41.17;24.20;;;10.90;99.90;;;;;;5071393;28;20471;-73
2023/02/23 12:33:54;;;;;;;39.03;23.10;;;10.90;99.90;;;;;;5057909;28;20429;-73
2023/02/23 12:36:30;;;;;;;40.03;23.87;;;10.90;99.90;;;;;;5055738;28;20491;-73
2023/02/23 12:39:05;;;;;;;43.30;23.97;;;10.90;99.90;;;;;;5056804;28;20437;-73
2023/02/23 12:41:37;;;;;;;41.87;22.73;;;10.90;99.90;;;;;;5071674;28;20937;-73
2023/02/23 12:44:28;;;;;;;46.03;24.40;;;10.90;99.90;;;;;;5060492;28;20441;-73
2023/02/23 12:46:56;;;;;;;40.70;23.47;;;10.90;99.90;;;;;;5062045;28;20433;-73
2023/02/23 12:49:32;;;;;;;44.40;24.63;;;10.90;99.90;;;;;;5063704;28;20466;-73
2023/02/23 12:52:07;;;;;;;44.80;25.20;;;10.90;99.90;;;;;;5063804;28;21053;-73
2023/02/23 12:54:33;;;;;;;48.57;26.63;;;10.90;99.90;;;;;;5061916;28;21001;-73
2023/02/23 12:57:18;;;;;;;50.27;26.40;;;10.90;99.90;;;;;;5060289;28;20796;-73
2023/02/23 12:59:52;;;;;;;55.87;27.87;;;10.90;99.90;;;;;;5058081;28;20438;-73
2023/02/23 13:02:24;;;;;;;54.73;28.80;;;10.90;99.90;;;;;;5056313;28;20455;-73
2023/02/23 13:05:11;;;;;;;47.57;27.57;;;10.80;99.90;;;;;;5070315;28;20505;-73
2023/02/23 13:07:46;;;;;;;45.17;24.17;;;10.80;99.90;;;;;;5054332;28;20470;-73
2023/02/23 13:10:38;;;;;;;41.27;23.17;;;10.80;99.90;;;;;;5070403;28;20476;-73
2023/02/23 13:13:15;;;;;;;42.60;25.83;;;10.80;99.90;;;;;;5061487;28;20436;-73
2023/02/23 13:15:54;;;;;;;45.43;24.90;;;10.80;99.90;;;;;;5063008;28;20446;-73
2023/02/23 13:18:26;;;;;;;40.03;22.33;;;10.80;99.90;;;;;;5063984;28;20433;-73
2023/02/23 13:21:18;;;;;;;38.83;22.30;;;10.80;99.90;;;;;;5066630;28;20437;-73
2023/02/23 13:23:55;;;;;;;42.70;22.00;;;10.80;99.90;;;;;;5051594;28;20457;-74
2023/02/23 13:26:24;;;;;;;37.63;20.63;;;10.80;99.90;;;;;;5058016;28;20433;-73
2023/02/23 13:29:01;;;;;;;35.97;20.10;;;10.80;99.90;;;;;;5056345;28;20461;-73
2023/02/23 13:31:32;;;;;;;36.97;20.73;;;10.80;99.90;;;;;;5073606;28;21015;-73
2023/02/23 13:33:59;;;;;;;35.93;19.20;;;10.80;99.90;;;;;;5056423;28;20457;-73
2023/02/23 13:36:28;;;;;;;32.67;18.17;;;10.80;99.90;;;;;;5057658;28;20456;-73
2023/02/23 13:39:09;;;;;;;34.60;19.03;;;10.80;99.90;;;;;;5059475;28;20426;-73
2023/02/23 13:41:49;;;;;;;37.10;18.33;;;10.80;99.90;;;;;;5066567;28;20528;-73
2023/02/23 13:44:36;;;;;;;33.33;20.63;;;10.80;99.90;;;;;;5063276;28;20539;-73
2023/02/23 13:47:21;;;;;;;31.97;17.20;;;10.80;99.90;;;;;;5064517;28;20429;-73
2023/02/23 13:49:53;;;;;;;32.00;17.40;;;10.80;99.90;;;;;;5060504;28;20529;-73
2023/02/23 13:52:25;;;;;;;32.90;18.00;;;10.90;99.90;;;;;;5069031;28;20429;-74
2023/02/23 13:54:57;;;;;;;29.97;16.27;;;10.80;99.90;;;;;;5056858;28;20427;-73
2023/02/23 13:57:26;;;;;;;35.50;17.80;;;10.80;99.90;;;;;;5071031;28;20894;-73
2023/02/23 13:59:52;;;;;;;28.80;16.63;;;10.80;99.90;;;;;;5072899;28;21027;-73
2023/02/23 14:02:22;;;;;;;33.50;19.37;;;10.80;99.90;;;;;;5071324;28;20829;-73
2023/02/23 14:04:49;;;;;;;34.33;19.60;;;10.80;99.90;;;;;;5059973;28;20947;-73
2023/02/23 14:07:25;;;;;;;31.27;16.53;;;10.80;99.90;;;;;;5059776;28;20429;-73
2023/02/23 14:10:06;;;;;;;29.20;18.33;;;10.80;99.90;;;;;;5061430;28;20533;-74
2023/02/23 14:13:03;;;;;;;29.97;16.47;;;10.80;99.90;;;;;;5062018;28;20462;-75
2023/02/23 14:15:36;;;;;;;32.17;18.30;;;10.80;99.90;;;;;;5060014;28;20868;-75
2023/02/23 14:18:29;;;;;;;30.83;17.63;;;10.70;99.90;;;;;;5066313;28;20425;-76
2023/02/23 14:21:25;;;;;;;34.97;17.87;;;10.80;99.90;;;;;;5068415;28;21158;-77
2023/02/23 14:24:04;;;;;;;40.60;19.47;;;10.80;99.90;;;;;;5053696;28;20796;-74
2023/02/23 14:26:29;;;;;;;39.53;20.00;;;10.80;99.90;;;;;;5052857;28;20864;-73
2023/02/23 14:29:19;;;;;;;38.63;22.37;;;10.80;99.90;;;;;;5057487;28;20545;-73
2023/02/23 14:32:09;;;;;;;39.53;21.00;;;10.80;99.90;;;;;;5055204;28;20230;-73
2023/02/23 14:34:48;;;;;;;40.87;21.27;;;10.70;99.90;;;;;;5058477;28;20471;-76
2023/02/23 14:37:29;;;;;;;38.33;21.10;;;10.70;99.90;;;;;;5063812;28;20855;-75
2023/02/23 14:40:00;;;;;;;42.03;21.27;;;10.70;99.90;;;;;;5061867;28;20466;-74
2023/02/23 14:42:31;;;;;;;36.10;20.10;;;10.70;99.90;;;;;;5060123;28;20813;-77
2023/02/23 14:45:06;;;;;;;41.93;21.13;;;10.70;99.90;;;;;;5057700;28;20960;-73
2023/02/23 14:47:45;;;;;;;37.47;20.70;;;10.70;99.90;;;;;;5066813;28;20436;-74
2023/02/23 14:50:33;;;;;;;35.47;20.40;;;10.70;99.90;;;;;;5054241;28;20472;-73
2023/02/23 14:53:00;;;;;;;39.80;21.00;;;10.60;99.90;;;;;;5052694;28;20433;-75
2023/02/23 14:55:31;;;;;;;37.63;21.30;;;10.60;99.90;;;;;;5052962;28;20507;-73
2023/02/23 14:57:57;;;;;;;37.33;21.30;;;10.60;99.90;;;;;;5054833;28;20999;-74
2023/02/23 15:00:26;;;;;;;35.63;19.53;;;10.60;99.90;;;;;;5056562;28;20776;-73
2023/02/23 15:02:58;;;;;;;34.70;21.27;;;10.60;99.90;;;;;;5064728;28;20430;-74
2023/02/23 15:05:29;;;;;;;33.97;19.10;;;10.60;99.90;;;;;;5064595;28;20438;-73
2023/02/23 15:08:00;;;;;;;33.60;20.00;;;10.60;99.90;;;;;;5062485;28;20431;-74
2023/02/23 15:10:46;;;;;;;35.10;17.97;;;10.60;99.90;;;;;;5044930;28;20483;-72
2023/02/23 15:13:38;;;;;;;35.33;20.33;;;10.60;99.90;;;;;;5065272;28;20459;-72
2023/02/23 15:16:22;;;;;;;34.03;18.50;;;10.60;99.90;;;;;;5063426;28;20444;-72
2023/02/23 15:19:28;;;;;;;32.00;19.10;;;10.60;99.90;;;;;;5053736;28;20437;-72
2023/02/23 15:21:56;;;;;;;41.37;20.30;;;10.60;99.90;;;;;;5067602;28;20428;-72